Airfield :
LOGIN :

Register | Disclaimer

   EN    FR    IT 

 










Legend :    VFR   Marginal VFR   IFR   Intensive IFR   Very Intensive IFR
Visi :
Ceiling :
>= 8 km
>= 3000ft
5 to 8 km
1000 to 3000 ft
1500m to 5 km
500 to 1000 ft
800 to 1500m
200 to 500 ft
< 800m
< 200 ft
Symbols :   Thunderstorms  Fog  Heavy snow  Heavy precipitations  Wind > 20 kt
SIGMETs :     Misc.  Thunderstorms  Icing  Turbulence  Mountain Waves  Volcanic Ashes






- Airport Elevation : 1516 ft
- IATA code : AGB


EDMA - Augsburg

CURRENT METAR :
  • 230150Z AUTO 22005KT 9999 OVC053/// 04/01 Q1025

EXPIRED METARs :
  • 230120Z AUTO 17004KT 140V210 9999 OVC054/// 04/01 Q1025
  • 230050Z AUTO 14006KT 9999 BKN055/// 03/01 Q1025
  • 230020Z AUTO VRB02KT 9999 NCD 02/00 Q1025
  • 222350Z AUTO 23007KT 9999 FEW054/// 02/00 Q1025
  • 222320Z AUTO 24006KT 9999 NCD 03/00 Q1025

TAF TAF EDMA
Valid from the 22 at 18:00 until the 23 at 03:00 UTC


221700Z 2218/2303 24005KT 9999 FEW040



MET'MAP, your aeronautical weather chart ! - Copyright ORBIFLY December 2007 - Disclaimer

ORBIFLY MET'MAP TEAM :

Programming & Development : Alexandra Zaïnal
Concept & original design : Baudouin d'Aumeries
Assistance for programming : Marc-Olivier Méhu
Technical & hardware support : Manuel Goepfert

Contact : metmap@orbifly.com




SOURCES & CREDITS :

   NOAA